createdAt,value
2023-02-15T00:00:07.096Z,5.15
2023-02-15T00:02:34.272Z,5.34
2023-02-15T00:05:01.484Z,5.35
2023-02-15T00:07:28.548Z,5.42
2023-02-15T00:09:55.647Z,5.29
2023-02-15T00:12:22.801Z,5.15
2023-02-15T00:14:49.879Z,5.22
2023-02-15T00:17:17.277Z,5.26
2023-02-15T00:19:44.321Z,5.17
2023-02-15T00:22:11.386Z,5.29
2023-02-15T00:24:38.443Z,5.23
2023-02-15T00:27:05.528Z,5.23
2023-02-15T00:29:32.776Z,5.22
2023-02-15T00:31:59.845Z,5.15
2023-02-15T00:34:29.894Z,5.17
2023-02-15T00:36:56.971Z,5.25
2023-02-15T00:39:24.970Z,5.19
2023-02-15T00:41:51.990Z,5.23
2023-02-15T00:44:19.166Z,5.25
2023-02-15T00:46:46.334Z,5.25
2023-02-15T00:49:13.405Z,5.27
2023-02-15T00:51:40.656Z,5.42
2023-02-15T00:54:08.168Z,5.52
2023-02-15T00:56:35.380Z,5.74
2023-02-15T00:59:02.687Z,5.60
2023-02-15T01:01:29.840Z,5.35
2023-02-15T01:03:57.148Z,5.40
2023-02-15T01:06:24.216Z,5.49
2023-02-15T01:08:51.281Z,5.31
2023-02-15T01:11:25.413Z,5.27
2023-02-15T01:13:56.253Z,5.26
2023-02-15T01:16:26.577Z,5.32
2023-02-15T01:18:56.184Z,5.36
2023-02-15T01:21:26.256Z,5.58
2023-02-15T01:23:53.554Z,5.55
2023-02-15T01:26:20.634Z,5.43
2023-02-15T01:28:47.752Z,5.33
2023-02-15T01:31:22.065Z,5.28
2023-02-15T01:33:50.028Z,5.55
2023-02-15T01:36:18.453Z,5.51
2023-02-15T01:38:46.204Z,5.45
2023-02-15T01:41:25.646Z,5.67
2023-02-15T01:44:04.318Z,5.55
2023-02-15T01:46:50.695Z,5.63
2023-02-15T01:49:25.212Z,5.52
2023-02-15T01:51:53.928Z,5.46
2023-02-15T01:54:30.587Z,5.52
2023-02-15T01:57:04.621Z,5.35
2023-02-15T01:59:34.971Z,5.37
2023-02-15T02:02:04.513Z,5.37
2023-02-15T02:04:46.300Z,5.47
2023-02-15T02:07:17.194Z,5.50
2023-02-15T02:09:45.733Z,5.42
2023-02-15T02:12:13.439Z,5.46
2023-02-15T02:14:41.668Z,5.51
2023-02-15T02:17:29.326Z,5.51
2023-02-15T02:20:49.019Z,5.36
2023-02-15T02:24:10.234Z,5.46
2023-02-15T02:26:49.229Z,5.42
2023-02-15T02:29:24.757Z,5.37
2023-02-15T02:32:45.612Z,5.40
2023-02-15T02:35:34.419Z,5.34
2023-02-15T02:38:36.740Z,5.27
2023-02-15T02:41:33.487Z,5.56
2023-02-15T02:44:14.009Z,5.41
2023-02-15T02:46:55.460Z,5.37
2023-02-15T02:49:36.240Z,5.38
2023-02-15T02:52:08.157Z,5.52
2023-02-15T02:54:37.243Z,5.33
2023-02-15T02:57:10.296Z,5.33
2023-02-15T02:59:46.407Z,5.32
2023-02-15T03:02:22.450Z,5.38
2023-02-15T03:04:59.669Z,5.36
2023-02-15T03:07:29.827Z,5.53
2023-02-15T03:10:01.301Z,5.36
2023-02-15T03:12:40.322Z,5.29
2023-02-15T03:15:16.920Z,5.42
2023-02-15T03:17:53.770Z,5.27
2023-02-15T03:20:32.405Z,5.33
2023-02-15T03:23:11.745Z,5.36
2023-02-15T03:25:44.214Z,5.26
2023-02-15T03:28:26.529Z,5.26
2023-02-15T03:30:59.065Z,5.31
2023-02-15T03:33:28.914Z,5.36
2023-02-15T03:36:21.544Z,5.35
2023-02-15T03:39:22.381Z,5.47
2023-02-15T03:42:18.464Z,5.33
2023-02-15T03:45:05.065Z,5.28
2023-02-15T03:47:41.737Z,5.22
2023-02-15T03:50:34.872Z,5.24
2023-02-15T03:53:06.328Z,5.32
2023-02-15T03:55:35.905Z,5.38
2023-02-15T03:58:22.357Z,5.32
2023-02-15T04:01:19.656Z,5.27
2023-02-15T04:03:58.353Z,5.27
2023-02-15T04:06:25.387Z,5.31
2023-02-15T04:09:21.675Z,5.35
2023-02-15T04:11:48.808Z,5.38
2023-02-15T04:14:34.123Z,5.29
2023-02-15T04:17:01.094Z,5.31
2023-02-15T04:19:46.880Z,5.35
2023-02-15T04:22:32.637Z,5.28
2023-02-15T04:25:15.084Z,5.31
2023-02-15T04:27:51.119Z,5.46
2023-02-15T04:30:22.040Z,5.50
2023-02-15T04:32:49.397Z,5.39
2023-02-15T04:35:17.061Z,5.33
2023-02-15T04:37:45.123Z,5.33
2023-02-15T04:40:15.995Z,5.36
2023-02-15T04:42:44.010Z,5.33
2023-02-15T04:45:11.124Z,5.39
2023-02-15T04:47:38.154Z,5.28
2023-02-15T04:50:06.101Z,5.22
2023-02-15T04:52:33.192Z,5.27
2023-02-15T04:55:00.207Z,5.23
2023-02-15T04:57:27.352Z,5.33
2023-02-15T04:59:54.431Z,5.43
2023-02-15T05:02:21.483Z,5.30
2023-02-15T05:04:48.541Z,5.42
2023-02-15T05:07:15.844Z,5.37
2023-02-15T05:09:42.884Z,5.38
2023-02-15T05:12:09.952Z,5.31
2023-02-15T05:14:37.048Z,5.30
2023-02-15T05:17:06.250Z,5.24
2023-02-15T05:19:33.439Z,5.37
2023-02-15T05:22:00.555Z,5.48
2023-02-15T05:24:46.484Z,5.28
2023-02-15T05:27:32.734Z,5.36
2023-02-15T05:30:00.013Z,5.29
2023-02-15T05:32:27.404Z,5.28
2023-02-15T05:34:54.607Z,5.29
2023-02-15T05:37:21.696Z,5.23
2023-02-15T05:39:48.760Z,5.28
2023-02-15T05:42:15.812Z,5.27
2023-02-15T05:44:42.880Z,5.27
2023-02-15T05:47:09.918Z,5.28
2023-02-15T05:49:37.258Z,5.40
2023-02-15T05:52:04.959Z,5.47
2023-02-15T05:54:32.203Z,5.39
2023-02-15T05:56:59.574Z,5.25
2023-02-15T05:59:26.703Z,5.24
2023-02-15T06:01:53.721Z,5.37
2023-02-15T06:04:20.896Z,5.38
2023-02-15T06:06:47.970Z,5.29
2023-02-15T06:09:15.391Z,5.29
2023-02-15T06:11:42.591Z,5.25
2023-02-15T06:14:09.619Z,5.29
2023-02-15T06:16:36.880Z,5.21
2023-02-15T06:19:04.823Z,5.27
2023-02-15T06:21:32.295Z,5.20
2023-02-15T06:23:59.510Z,5.14
2023-02-15T06:26:26.714Z,5.16
2023-02-15T06:28:53.904Z,5.27
2023-02-15T06:31:21.160Z,5.29
2023-02-15T06:33:48.280Z,5.23
2023-02-15T06:36:15.322Z,5.28
2023-02-15T06:38:42.524Z,5.41
2023-02-15T06:41:09.655Z,5.42
2023-02-15T06:43:36.651Z,5.34
2023-02-15T06:46:04.073Z,5.36
2023-02-15T06:48:31.494Z,5.36
2023-02-15T06:50:58.653Z,5.21
2023-02-15T06:53:25.780Z,5.19
2023-02-15T06:55:52.857Z,5.26
2023-02-15T06:58:19.913Z,5.25
2023-02-15T07:00:47.019Z,5.26
2023-02-15T07:03:15.862Z,5.22
2023-02-15T07:05:43.006Z,5.56
2023-02-15T07:08:10.254Z,5.33
2023-02-15T07:10:37.341Z,5.41
2023-02-15T07:13:04.418Z,5.37
2023-02-15T07:15:31.615Z,5.43
2023-02-15T07:18:00.127Z,5.39
2023-02-15T07:20:27.720Z,5.37
2023-02-15T07:22:54.750Z,5.23
2023-02-15T07:25:21.779Z,5.28
2023-02-15T07:27:48.924Z,5.39
2023-02-15T07:30:18.401Z,5.41
2023-02-15T07:33:05.784Z,5.33
2023-02-15T07:35:33.963Z,5.42
2023-02-15T07:38:02.197Z,5.44
2023-02-15T07:40:29.278Z,5.37
2023-02-15T07:43:00.215Z,5.30
2023-02-15T07:45:27.982Z,5.48
2023-02-15T07:47:55.097Z,5.48
2023-02-15T07:50:22.175Z,5.31
2023-02-15T07:52:49.197Z,5.32
2023-02-15T07:55:16.399Z,5.30
2023-02-15T07:57:49.128Z,5.55
2023-02-15T08:00:19.184Z,5.58
2023-02-15T08:03:11.190Z,5.56
2023-02-15T08:05:39.184Z,5.46
2023-02-15T08:08:06.675Z,5.49
2023-02-15T08:10:52.550Z,5.41
2023-02-15T08:13:19.573Z,5.37
2023-02-15T08:15:52.729Z,5.30
2023-02-15T08:18:19.757Z,5.33
2023-02-15T08:20:52.751Z,5.31
2023-02-15T08:23:19.847Z,5.24
2023-02-15T08:25:46.896Z,5.17
2023-02-15T08:28:13.994Z,5.22
2023-02-15T08:30:41.056Z,5.17
2023-02-15T08:33:08.355Z,5.26
2023-02-15T08:35:35.461Z,5.20
2023-02-15T08:38:02.523Z,5.26
2023-02-15T08:40:29.693Z,5.21
2023-02-15T08:42:56.764Z,5.25
2023-02-15T08:45:26.382Z,5.24
2023-02-15T08:47:54.421Z,5.26
2023-02-15T08:50:21.491Z,5.34
2023-02-15T08:52:48.632Z,5.22
2023-02-15T08:55:16.639Z,5.24
2023-02-15T08:57:46.452Z,5.26
2023-02-15T09:00:16.450Z,5.21
2023-02-15T09:02:43.528Z,5.28
2023-02-15T09:05:10.757Z,5.30
2023-02-15T09:07:37.798Z,5.35
2023-02-15T09:10:05.534Z,5.33
2023-02-15T09:12:32.556Z,5.29
2023-02-15T09:14:59.667Z,5.30
2023-02-15T09:17:26.693Z,5.28
2023-02-15T09:19:53.760Z,5.26
2023-02-15T09:22:21.237Z,5.31
2023-02-15T09:24:48.270Z,5.24
2023-02-15T09:27:15.497Z,5.27
2023-02-15T09:29:42.547Z,5.32
2023-02-15T09:32:09.562Z,5.29
2023-02-15T09:34:36.638Z,5.31
2023-02-15T09:37:03.883Z,5.31
2023-02-15T09:39:31.097Z,5.27
2023-02-15T09:42:44.663Z,5.27
2023-02-15T09:45:49.017Z,5.29
2023-02-15T09:48:50.203Z,5.20
2023-02-15T09:51:38.688Z,5.18
2023-02-15T09:54:26.202Z,5.22
2023-02-15T09:57:22.233Z,5.21
2023-02-15T10:00:10.902Z,5.23
2023-02-15T10:02:54.434Z,5.21
2023-02-15T10:05:52.095Z,5.30
2023-02-15T10:09:08.734Z,5.28
2023-02-15T10:11:42.053Z,5.40
2023-02-15T10:14:46.538Z,5.27
2023-02-15T10:17:37.862Z,5.28
2023-02-15T10:20:31.999Z,5.35
2023-02-15T10:23:10.712Z,5.39
2023-02-15T10:26:12.344Z,5.26
2023-02-15T10:28:52.325Z,5.28
2023-02-15T10:31:51.981Z,5.42
2023-02-15T10:34:40.857Z,5.50
2023-02-15T10:37:31.100Z,5.45
2023-02-15T10:40:08.822Z,5.45
2023-02-15T10:42:57.915Z,5.46
2023-02-15T10:45:55.794Z,5.52
2023-02-15T10:48:31.514Z,5.44
2023-02-15T10:51:03.313Z,5.33
2023-02-15T10:53:39.494Z,5.31
2023-02-15T10:56:37.355Z,5.30
2023-02-15T10:59:32.277Z,5.41
2023-02-15T11:02:18.912Z,5.36
2023-02-15T11:04:54.148Z,5.38
2023-02-15T11:07:46.084Z,5.34
2023-02-15T11:11:03.013Z,5.31
2023-02-15T11:13:38.872Z,5.32
2023-02-15T11:16:22.527Z,5.36
2023-02-15T11:19:20.463Z,5.36
2023-02-15T11:21:54.045Z,5.37
2023-02-15T11:24:22.704Z,5.38
2023-02-15T11:27:01.930Z,5.36
2023-02-15T11:29:54.355Z,5.40
2023-02-15T11:32:36.872Z,5.30
2023-02-15T11:35:12.937Z,5.31
2023-02-15T11:37:48.030Z,5.31
2023-02-15T11:40:29.443Z,5.32
2023-02-15T11:43:14.634Z,5.30
2023-02-15T11:45:45.773Z,5.39
2023-02-15T11:48:16.995Z,5.43
2023-02-15T11:50:45.988Z,5.39
2023-02-15T11:53:22.270Z,5.43
2023-02-15T11:55:52.072Z,5.41
2023-02-15T11:58:53.882Z,5.39
2023-02-15T12:01:34.013Z,5.33
2023-02-15T12:04:34.020Z,5.45
2023-02-15T12:07:23.582Z,5.49
2023-02-15T12:10:05.228Z,5.44
2023-02-15T12:12:36.140Z,5.44
2023-02-15T12:15:07.869Z,5.36
2023-02-15T12:17:56.068Z,5.45
2023-02-15T12:20:31.982Z,5.47
2023-02-15T12:23:12.056Z,5.43
2023-02-15T12:25:59.191Z,5.38
2023-02-15T12:28:39.683Z,5.39
2023-02-15T12:31:47.200Z,5.48
2023-02-15T12:34:24.514Z,5.51
2023-02-15T12:36:59.180Z,5.47
2023-02-15T12:39:32.571Z,5.36
2023-02-15T12:42:22.818Z,5.40
2023-02-15T12:45:20.204Z,5.44
2023-02-15T12:47:47.333Z,5.44
2023-02-15T12:50:34.586Z,5.30
2023-02-15T12:53:35.860Z,5.30
2023-02-15T12:56:07.089Z,5.45
2023-02-15T12:58:42.227Z,5.46
2023-02-15T13:01:26.706Z,5.45
2023-02-15T13:03:56.696Z,5.54
2023-02-15T13:06:24.039Z,5.52
2023-02-15T13:08:58.503Z,5.51
2023-02-15T13:11:38.881Z,5.58
2023-02-15T13:14:32.534Z,5.56
2023-02-15T13:17:04.100Z,5.58
2023-02-15T13:19:57.812Z,5.57
2023-02-15T13:22:43.321Z,5.61
2023-02-15T13:25:22.260Z,5.62
2023-02-15T13:27:58.560Z,5.68
2023-02-15T13:30:43.253Z,5.71
2023-02-15T13:33:29.668Z,5.72
2023-02-15T13:36:42.983Z,5.68
2023-02-15T13:39:34.618Z,5.69
2023-02-15T13:42:40.906Z,5.74
2023-02-15T13:45:39.617Z,5.78
2023-02-15T13:48:53.013Z,5.77
2023-02-15T13:51:40.114Z,5.87
2023-02-15T13:54:44.886Z,5.86
2023-02-15T13:57:36.231Z,5.87
2023-02-15T14:00:36.329Z,5.88
2023-02-15T14:03:18.258Z,5.87
2023-02-15T14:06:00.505Z,5.84
2023-02-15T14:09:07.611Z,5.85
2023-02-15T14:11:42.358Z,5.70
2023-02-15T14:14:25.058Z,5.69
2023-02-15T14:17:23.361Z,5.70
2023-02-15T14:20:03.086Z,5.62
2023-02-15T14:22:39.921Z,5.64
2023-02-15T14:25:41.479Z,5.55
2023-02-15T14:28:52.078Z,5.53
2023-02-15T14:31:24.497Z,5.58
2023-02-15T14:33:59.189Z,5.48
2023-02-15T14:36:31.231Z,5.49
2023-02-15T14:39:51.266Z,5.52
2023-02-15T14:42:42.074Z,5.47
2023-02-15T14:45:43.973Z,5.53
2023-02-15T14:48:25.298Z,5.60
2023-02-15T14:50:52.429Z,5.56
2023-02-15T14:53:32.057Z,5.51
2023-02-15T14:56:20.509Z,5.42
2023-02-15T14:58:53.630Z,5.34
2023-02-15T15:01:36.642Z,5.40
2023-02-15T15:04:15.498Z,5.32
2023-02-15T15:06:45.031Z,5.36
2023-02-15T15:09:29.289Z,5.44
2023-02-15T15:12:38.862Z,5.34
2023-02-15T15:15:07.837Z,5.21
2023-02-15T15:17:35.059Z,5.17
2023-02-15T15:20:08.400Z,5.12
2023-02-15T15:22:37.755Z,5.20
2023-02-15T15:25:34.785Z,5.11
2023-02-15T15:28:01.898Z,5.13
2023-02-15T15:30:31.615Z,5.09
2023-02-15T15:32:58.571Z,5.15
2023-02-15T15:35:53.781Z,5.13
2023-02-15T15:39:06.960Z,5.12
2023-02-15T15:42:02.916Z,5.17
2023-02-15T15:44:54.017Z,5.26
2023-02-15T15:48:07.152Z,5.26
2023-02-15T15:50:35.575Z,5.27
2023-02-15T15:53:04.390Z,5.30
2023-02-15T15:55:34.634Z,5.23
2023-02-15T15:58:07.182Z,5.22
2023-02-15T16:00:39.308Z,5.20
2023-02-15T16:03:07.046Z,5.14
2023-02-15T16:05:39.339Z,5.20
2023-02-15T16:08:07.054Z,5.18
2023-02-15T16:10:36.928Z,5.19
2023-02-15T16:13:05.795Z,5.21
2023-02-15T16:15:50.677Z,5.26
2023-02-15T16:18:23.054Z,5.23
2023-02-15T16:21:00.160Z,5.16
2023-02-15T16:23:36.384Z,5.27
2023-02-15T16:27:00.122Z,5.17
2023-02-15T16:29:32.549Z,5.15
2023-02-15T16:32:21.441Z,5.15
2023-02-15T16:35:03.833Z,5.12
2023-02-15T16:37:35.796Z,5.21
2023-02-15T16:40:03.527Z,5.17
2023-02-15T16:42:30.530Z,5.18
2023-02-15T16:45:10.148Z,5.21
2023-02-15T16:47:44.232Z,5.23
2023-02-15T16:50:38.246Z,5.08
2023-02-15T16:53:17.281Z,5.20
2023-02-15T16:55:48.963Z,5.09
2023-02-15T16:58:18.734Z,5.04
2023-02-15T17:00:46.675Z,4.97
2023-02-15T17:03:13.586Z,4.95
2023-02-15T17:05:51.155Z,4.88
2023-02-15T17:08:35.342Z,4.77
2023-02-15T17:11:22.442Z,4.80
2023-02-15T17:14:09.756Z,4.76
2023-02-15T17:17:01.887Z,4.62
2023-02-15T17:19:36.109Z,4.69
2023-02-15T17:22:08.132Z,4.65
2023-02-15T17:24:43.061Z,4.65
2023-02-15T17:27:25.770Z,4.59
2023-02-15T17:29:59.974Z,4.53
2023-02-15T17:32:31.342Z,4.49
2023-02-15T17:35:09.181Z,4.28
2023-02-15T17:37:38.858Z,4.39
2023-02-15T17:40:28.318Z,4.33
2023-02-15T17:42:55.554Z,4.44
2023-02-15T17:45:27.339Z,4.51
2023-02-15T17:47:54.705Z,4.38
2023-02-15T17:50:26.358Z,4.32
2023-02-15T17:52:56.464Z,4.22
2023-02-15T17:55:41.240Z,4.24
2023-02-15T17:58:19.494Z,4.19
2023-02-15T18:01:11.898Z,4.30
2023-02-15T18:04:04.761Z,4.28
2023-02-15T18:06:51.777Z,4.26
2023-02-15T18:09:40.784Z,4.26
2023-02-15T18:12:22.255Z,4.22
2023-02-15T18:14:50.859Z,4.29
2023-02-15T18:17:18.722Z,4.23
2023-02-15T18:19:47.233Z,4.29
2023-02-15T18:22:19.102Z,4.25
2023-02-15T18:24:48.782Z,4.11
2023-02-15T18:27:16.919Z,4.14
2023-02-15T18:29:44.086Z,4.15
2023-02-15T18:32:20.033Z,4.19
2023-02-15T18:34:49.518Z,4.16
2023-02-15T18:37:21.098Z,4.20
2023-02-15T18:39:57.428Z,4.28
2023-02-15T18:42:35.240Z,4.14
2023-02-15T18:45:18.706Z,4.05
2023-02-15T18:47:47.602Z,4.04
2023-02-15T18:50:17.001Z,4.04
2023-02-15T18:52:47.237Z,3.95
2023-02-15T18:55:23.095Z,3.90
2023-02-15T18:57:54.041Z,3.92
2023-02-15T19:00:33.888Z,3.98
2023-02-15T19:03:02.602Z,4.04
2023-02-15T19:05:31.959Z,4.07
2023-02-15T19:08:01.827Z,4.05
2023-02-15T19:10:31.464Z,4.04
2023-02-15T19:12:58.984Z,4.07
2023-02-15T19:15:30.584Z,4.07
2023-02-15T19:17:57.788Z,4.08
2023-02-15T19:20:45.582Z,4.07
2023-02-15T19:23:20.337Z,4.06
2023-02-15T19:25:49.741Z,4.12
2023-02-15T19:28:32.494Z,4.10
2023-02-15T19:30:59.769Z,4.12
2023-02-15T19:33:27.042Z,4.18
2023-02-15T19:35:57.647Z,4.16
2023-02-15T19:38:30.503Z,4.29
2023-02-15T19:41:07.535Z,4.24
2023-02-15T19:43:35.900Z,4.28
2023-02-15T19:46:03.335Z,4.30
2023-02-15T19:48:30.508Z,4.25
2023-02-15T19:50:58.977Z,4.32
2023-02-15T19:53:28.605Z,4.27
2023-02-15T19:55:55.778Z,4.30
2023-02-15T19:58:23.265Z,4.29
2023-02-15T20:00:51.770Z,4.29
2023-02-15T20:03:18.815Z,4.34
2023-02-15T20:05:46.970Z,4.38
2023-02-15T20:08:20.863Z,4.35
2023-02-15T20:10:48.650Z,4.39
2023-02-15T20:13:20.281Z,4.33
2023-02-15T20:15:49.157Z,4.47
2023-02-15T20:18:16.236Z,4.37
2023-02-15T20:20:49.445Z,4.33
2023-02-15T20:23:31.096Z,4.35
2023-02-15T20:26:01.091Z,4.36
2023-02-15T20:28:31.887Z,4.31
2023-02-15T20:30:59.638Z,4.33
2023-02-15T20:33:26.834Z,4.31
2023-02-15T20:35:54.044Z,4.36
2023-02-15T20:38:29.003Z,4.28
2023-02-15T20:41:17.658Z,4.31
2023-02-15T20:43:44.919Z,4.20
2023-02-15T20:46:11.990Z,4.18
2023-02-15T20:48:39.128Z,4.16
2023-02-15T20:51:14.482Z,4.22
2023-02-15T20:53:41.510Z,4.25
2023-02-15T20:56:22.327Z,4.17
2023-02-15T20:58:50.657Z,4.17
2023-02-15T21:01:21.494Z,4.12
2023-02-15T21:03:48.752Z,4.04
2023-02-15T21:06:19.172Z,4.08
2023-02-15T21:08:46.243Z,4.06
2023-02-15T21:11:23.819Z,4.06
2023-02-15T21:13:51.384Z,4.03
2023-02-15T21:16:18.574Z,3.99
2023-02-15T21:18:45.693Z,3.97
2023-02-15T21:21:23.593Z,4.01
2023-02-15T21:23:52.418Z,4.09
2023-02-15T21:26:22.805Z,4.04
2023-02-15T21:28:50.579Z,3.85
2023-02-15T21:31:25.187Z,3.85
2023-02-15T21:33:52.769Z,3.88
2023-02-15T21:36:24.206Z,3.81
2023-02-15T21:38:53.767Z,3.81
2023-02-15T21:41:42.814Z,3.81
2023-02-15T21:44:41.040Z,3.74
2023-02-15T21:47:44.666Z,3.82
2023-02-15T21:50:37.855Z,3.83
2023-02-15T21:53:07.307Z,3.84
2023-02-15T21:55:34.407Z,3.84
2023-02-15T21:58:02.451Z,3.83
2023-02-15T22:00:30.686Z,3.75
2023-02-15T22:03:00.960Z,3.74
2023-02-15T22:05:33.763Z,3.70
2023-02-15T22:08:01.232Z,3.72
2023-02-15T22:10:31.858Z,3.74
2023-02-15T22:13:02.925Z,3.70
2023-02-15T22:15:37.588Z,3.64
2023-02-15T22:18:05.977Z,3.63
2023-02-15T22:20:33.209Z,3.82
2023-02-15T22:23:00.253Z,3.72
2023-02-15T22:25:27.720Z,3.64
2023-02-15T22:27:55.701Z,3.59
2023-02-15T22:30:27.461Z,3.65
2023-02-15T22:32:56.998Z,3.66
2023-02-15T22:35:31.227Z,3.67
2023-02-15T22:37:59.018Z,3.66
2023-02-15T22:40:33.137Z,3.60
2023-02-15T22:43:03.139Z,3.63
2023-02-15T22:45:32.112Z,3.57
2023-02-15T22:48:00.701Z,3.53
2023-02-15T22:50:33.081Z,3.60
2023-02-15T22:53:04.030Z,3.61
2023-02-15T22:55:36.393Z,3.61
2023-02-15T22:58:04.311Z,3.60
2023-02-15T23:00:38.399Z,3.62
2023-02-15T23:03:17.014Z,3.50
2023-02-15T23:05:45.268Z,3.63
2023-02-15T23:08:12.652Z,3.71
2023-02-15T23:10:41.303Z,3.63
2023-02-15T23:13:31.272Z,3.66
2023-02-15T23:16:01.885Z,3.68
2023-02-15T23:18:31.539Z,3.64
2023-02-15T23:21:04.409Z,3.68
2023-02-15T23:23:38.193Z,3.69
2023-02-15T23:26:18.076Z,3.64
2023-02-15T23:28:46.433Z,3.71
2023-02-15T23:31:23.598Z,3.67
2023-02-15T23:33:51.636Z,3.60
2023-02-15T23:36:38.116Z,3.54
2023-02-15T23:39:37.853Z,3.56
2023-02-15T23:42:27.948Z,3.51
2023-02-15T23:44:55.422Z,3.52
2023-02-15T23:47:53.385Z,3.45
2023-02-15T23:50:27.196Z,3.40
2023-02-15T23:52:55.541Z,3.36
2023-02-15T23:55:25.240Z,3.34
2023-02-15T23:57:53.423Z,3.36
